Time;durP1;ratioP1;P1;durP2;ratioP2;P2;SDS_P1;SDS_P2;PMS_P1;PMS_P2;Temp;Humidity;BMP_temperature;BMP_pressure;BME280_temperature;BME280_humidity;BME280_pressure;Samples;Min_cycle;Max_cycle;Signal;HPM_P1;HPM_P2
2022/09/17 00:00:59;;;;;;;;;;;21.60;40.80;;;;;;492188;240;1278;-50
2022/09/17 00:03:00;;;;;;;;;;;21.60;40.80;;;;;;492215;240;1311;-51
2022/09/17 00:05:01;;;;;;;;;;;21.70;40.80;;;;;;491726;240;2205;-51
2022/09/17 00:07:03;;;;;;;;;;;21.60;40.70;;;;;;492242;240;1225;-51
2022/09/17 00:09:04;;;;;;;;;;;21.60;40.70;;;;;;492177;240;1131;-50
2022/09/17 00:11:06;;;;;;;;;;;21.70;40.80;;;;;;492183;240;1116;-51
2022/09/17 00:13:07;;;;;;;;;;;21.70;40.80;;;;;;491936;240;1083;-51
2022/09/17 00:15:08;;;;;;;;;;;21.60;40.70;;;;;;492240;240;1131;-50
2022/09/17 00:17:10;;;;;;;;;;;21.60;40.70;;;;;;492234;240;1280;-51
2022/09/17 00:19:11;;;;;;;;;;;21.60;40.70;;;;;;492251;240;1107;-51
2022/09/17 00:21:12;;;;;;;;;;;21.70;40.70;;;;;;491785;240;1058;-51
2022/09/17 00:23:13;;;;;;;;;;;21.60;40.70;;;;;;492224;240;1129;-51
2022/09/17 00:25:15;;;;;;;;;;;21.60;40.70;;;;;;492213;240;2106;-51
2022/09/17 00:27:16;;;;;;;;;;;21.60;40.70;;;;;;492195;240;1177;-50
2022/09/17 00:29:17;;;;;;;;;;;21.60;40.80;;;;;;492225;240;1152;-51
2022/09/17 00:31:19;;;;;;;;;;;21.60;40.80;;;;;;492062;240;1110;-51
2022/09/17 00:33:20;;;;;;;;;;;21.60;40.70;;;;;;491807;240;1079;-51
2022/09/17 00:35:21;;;;;;;;;;;21.60;40.70;;;;;;492191;240;1019;-50
2022/09/17 00:37:23;;;;;;;;;;;21.60;40.70;;;;;;491840;240;1084;-51
2022/09/17 00:39:24;;;;;;;;;;;21.60;40.70;;;;;;492251;240;1339;-51
2022/09/17 00:41:25;;;;;;;;;;;21.60;40.70;;;;;;492052;240;1448;-50
2022/09/17 00:43:27;;;;;;;;;;;21.60;40.70;;;;;;491793;240;1333;-50
2022/09/17 00:45:28;;;;;;;;;;;21.60;40.70;;;;;;492215;240;1310;-51
2022/09/17 00:47:29;;;;;;;;;;;21.60;40.60;;;;;;492256;240;1340;-51
2022/09/17 00:49:31;;;;;;;;;;;21.70;40.70;;;;;;492243;240;1287;-50
2022/09/17 00:51:32;;;;;;;;;;;21.60;40.60;;;;;;491795;240;1281;-50
2022/09/17 00:53:33;;;;;;;;;;;21.60;40.60;;;;;;492227;240;1288;-50
2022/09/17 00:55:35;;;;;;;;;;;21.60;40.60;;;;;;491740;240;1206;-50
2022/09/17 00:57:36;;;;;;;;;;;21.60;40.60;;;;;;492197;240;1219;-51
2022/09/17 00:59:37;;;;;;;;;;;21.60;40.60;;;;;;492225;240;1325;-51
2022/09/17 01:01:39;;;;;;;;;;;21.60;40.60;;;;;;492232;240;1274;-50
2022/09/17 01:03:40;;;;;;;;;;;21.60;40.60;;;;;;492238;240;2153;-51
2022/09/17 01:05:41;;;;;;;;;;;21.60;40.60;;;;;;492239;240;1298;-51
2022/09/17 01:07:43;;;;;;;;;;;21.60;40.60;;;;;;492259;240;1361;-51
2022/09/17 01:09:44;;;;;;;;;;;21.70;40.60;;;;;;491994;240;1315;-50
2022/09/17 01:11:45;;;;;;;;;;;21.60;40.50;;;;;;492245;240;1295;-51
2022/09/17 01:13:46;;;;;;;;;;;21.70;40.60;;;;;;491983;240;1471;-50
2022/09/17 01:15:48;;;;;;;;;;;21.60;40.50;;;;;;492272;240;1066;-51
2022/09/17 01:17:49;;;;;;;;;;;21.60;40.50;;;;;;492265;240;1198;-51
2022/09/17 01:19:50;;;;;;;;;;;21.60;40.50;;;;;;492257;240;1054;-50
2022/09/17 01:21:52;;;;;;;;;;;21.60;40.50;;;;;;492285;240;1090;-51
2022/09/17 01:23:53;;;;;;;;;;;21.60;40.50;;;;;;492259;240;2156;-50
2022/09/17 01:25:54;;;;;;;;;;;21.60;40.50;;;;;;491772;240;1165;-51
2022/09/17 01:27:56;;;;;;;;;;;21.60;40.50;;;;;;491773;240;1310;-50
2022/09/17 01:29:57;;;;;;;;;;;21.60;40.60;;;;;;492211;240;2311;-51
2022/09/17 01:31:58;;;;;;;;;;;21.60;40.60;;;;;;492238;240;1259;-49
2022/09/17 01:34:01;;;;;;;;;;;21.60;40.70;;;;;;492239;240;1329;-51
2022/09/17 01:36:02;;;;;;;;;;;21.60;40.70;;;;;;491952;240;1563;-51
2022/09/17 01:38:04;;;;;;;;;;;21.60;40.70;;;;;;491782;240;1217;-50
2022/09/17 01:40:05;;;;;;;;;;;21.60;40.60;;;;;;492203;240;1243;-50
2022/09/17 01:42:06;;;;;;;;;;;21.60;40.60;;;;;;492022;240;1286;-50
2022/09/17 01:44:08;;;;;;;;;;;21.60;40.60;;;;;;491863;240;2187;-51
2022/09/17 01:46:09;;;;;;;;;;;21.60;40.70;;;;;;492244;240;1339;-51
2022/09/17 01:48:11;;;;;;;;;;;21.60;40.60;;;;;;492242;240;1112;-51
2022/09/17 01:50:13;;;;;;;;;;;21.60;40.60;;;;;;491783;240;1285;-51
2022/09/17 01:52:14;;;;;;;;;;;21.60;40.60;;;;;;492204;240;1342;-50
2022/09/17 01:54:15;;;;;;;;;;;21.60;40.50;;;;;;491743;240;1227;-50
2022/09/17 01:56:16;;;;;;;;;;;21.60;40.40;;;;;;492191;240;1268;-51
2022/09/17 01:58:18;;;;;;;;;;;21.60;40.50;;;;;;492201;240;1311;-51
2022/09/17 02:00:19;;;;;;;;;;;21.60;40.50;;;;;;492195;240;1207;-50
2022/09/17 02:02:20;;;;;;;;;;;21.60;40.50;;;;;;491731;240;1270;-51
2022/09/17 02:04:22;;;;;;;;;;;21.60;40.50;;;;;;491718;240;2253;-51
2022/09/17 02:06:23;;;;;;;;;;;21.60;40.50;;;;;;492195;240;1258;-51
2022/09/17 02:08:25;;;;;;;;;;;21.60;40.60;;;;;;491743;240;1324;-51
2022/09/17 02:10:26;;;;;;;;;;;21.60;40.60;;;;;;492066;240;1374;-50
2022/09/17 02:12:28;;;;;;;;;;;21.60;40.50;;;;;;491746;240;1261;-50
2022/09/17 02:14:29;;;;;;;;;;;21.60;40.60;;;;;;491994;240;1353;-50
2022/09/17 02:16:31;;;;;;;;;;;21.60;40.50;;;;;;491744;240;1257;-51
2022/09/17 02:18:32;;;;;;;;;;;21.70;40.50;;;;;;492229;240;2451;-50
2022/09/17 02:20:33;;;;;;;;;;;21.60;40.40;;;;;;491780;240;1315;-50
2022/09/17 02:22:34;;;;;;;;;;;21.60;40.50;;;;;;492229;240;1326;-50
2022/09/17 02:24:36;;;;;;;;;;;21.60;40.40;;;;;;492039;240;2172;-51
2022/09/17 02:26:37;;;;;;;;;;;21.60;40.50;;;;;;491939;240;1253;-50
2022/09/17 02:28:38;;;;;;;;;;;21.60;40.50;;;;;;491933;240;1377;-51
2022/09/17 02:30:40;;;;;;;;;;;21.60;40.50;;;;;;491723;240;1289;-51
2022/09/17 02:32:41;;;;;;;;;;;21.70;40.50;;;;;;491905;240;1259;-51
2022/09/17 02:34:43;;;;;;;;;;;21.60;40.40;;;;;;492171;240;1352;-51
2022/09/17 02:36:45;;;;;;;;;;;21.70;40.40;;;;;;492076;240;1309;-51
2022/09/17 02:38:46;;;;;;;;;;;21.70;40.40;;;;;;491739;240;1612;-51
2022/09/17 02:40:47;;;;;;;;;;;21.70;40.40;;;;;;491869;240;1297;-51
2022/09/17 02:42:48;;;;;;;;;;;21.70;40.30;;;;;;491953;240;1291;-50
2022/09/17 02:44:50;;;;;;;;;;;21.60;40.30;;;;;;491936;240;2176;-50
2022/09/17 02:46:51;;;;;;;;;;;21.60;40.30;;;;;;491731;240;1441;-50
2022/09/17 02:48:52;;;;;;;;;;;21.60;40.30;;;;;;491713;240;1251;-51
2022/09/17 02:50:54;;;;;;;;;;;21.60;40.30;;;;;;491963;240;1234;-51
2022/09/17 02:52:55;;;;;;;;;;;21.70;40.30;;;;;;492194;240;1206;-50
2022/09/17 02:54:56;;;;;;;;;;;21.70;40.30;;;;;;491778;240;1235;-50
2022/09/17 02:56:58;;;;;;;;;;;21.60;40.20;;;;;;492040;240;1342;-50
2022/09/17 02:58:59;;;;;;;;;;;21.70;40.30;;;;;;491879;240;1477;-52
2022/09/17 03:01:00;;;;;;;;;;;21.70;40.30;;;;;;491734;240;1224;-51
2022/09/17 03:03:02;;;;;;;;;;;21.60;40.30;;;;;;492195;240;1259;-51
2022/09/17 03:05:03;;;;;;;;;;;21.60;40.40;;;;;;492178;240;2255;-50
2022/09/17 03:07:07;;;;;;;;;;;21.50;40.50;;;;;;491766;240;1242;-50
2022/09/17 03:09:06;;;;;;;;;;;21.50;40.60;;;;;;491770;240;2216;-50
2022/09/17 03:11:08;;;;;;;;;;;21.60;40.50;;;;;;492212;240;1350;-51
2022/09/17 03:13:09;;;;;;;;;;;21.60;40.50;;;;;;491855;240;1323;-50
2022/09/17 03:15:10;;;;;;;;;;;21.60;40.50;;;;;;491985;240;1294;-51
2022/09/17 03:17:11;;;;;;;;;;;21.60;40.40;;;;;;492204;240;1255;-50
2022/09/17 03:19:13;;;;;;;;;;;21.60;40.40;;;;;;491936;240;1266;-51
2022/09/17 03:21:14;;;;;;;;;;;21.60;40.40;;;;;;491881;240;1299;-51
2022/09/17 03:23:15;;;;;;;;;;;21.60;40.40;;;;;;492234;240;1282;-51
2022/09/17 03:25:17;;;;;;;;;;;21.60;40.30;;;;;;491896;240;2151;-50
2022/09/17 03:27:18;;;;;;;;;;;21.60;40.40;;;;;;491789;240;1218;-51
2022/09/17 03:29:19;;;;;;;;;;;21.60;40.30;;;;;;492244;240;1295;-51
2022/09/17 03:31:21;;;;;;;;;;;21.60;40.30;;;;;;491784;240;1207;-51
2022/09/17 03:33:22;;;;;;;;;;;21.60;40.30;;;;;;492158;240;1269;-51
2022/09/17 03:35:23;;;;;;;;;;;21.60;40.40;;;;;;492236;240;1302;-51
2022/09/17 03:37:25;;;;;;;;;;;21.60;40.40;;;;;;491773;240;1283;-51
2022/09/17 03:39:26;;;;;;;;;;;21.60;40.40;;;;;;491741;240;1192;-51
2022/09/17 03:41:27;;;;;;;;;;;21.60;40.40;;;;;;492228;240;1121;-51
2022/09/17 03:43:29;;;;;;;;;;;21.60;40.30;;;;;;492226;240;1164;-51
2022/09/17 03:45:30;;;;;;;;;;;21.60;40.30;;;;;;492007;240;2212;-51
2022/09/17 03:47:31;;;;;;;;;;;21.60;40.30;;;;;;491748;240;1281;-50
2022/09/17 03:49:33;;;;;;;;;;;21.60;40.30;;;;;;491740;240;1356;-51
2022/09/17 03:51:34;;;;;;;;;;;21.60;40.30;;;;;;492205;240;1390;-50
2022/09/17 03:53:35;;;;;;;;;;;21.60;40.30;;;;;;491903;240;1252;-50
2022/09/17 03:55:37;;;;;;;;;;;21.60;40.30;;;;;;492189;240;1254;-50
2022/09/17 03:57:38;;;;;;;;;;;21.60;40.30;;;;;;492125;240;1262;-51
2022/09/17 03:59:39;;;;;;;;;;;21.60;40.30;;;;;;492194;240;1294;-51
2022/09/17 04:01:41;;;;;;;;;;;21.60;40.20;;;;;;491780;240;1201;-50
2022/09/17 04:03:42;;;;;;;;;;;21.60;40.20;;;;;;491963;240;1365;-51
2022/09/17 04:05:43;;;;;;;;;;;21.60;40.30;;;;;;492200;240;2169;-50
2022/09/17 04:07:45;;;;;;;;;;;21.60;40.20;;;;;;491757;240;1233;-51
2022/09/17 04:09:46;;;;;;;;;;;21.60;40.30;;;;;;491917;240;1320;-50
2022/09/17 04:11:47;;;;;;;;;;;21.60;40.30;;;;;;491892;240;1213;-50
2022/09/17 04:13:48;;;;;;;;;;;21.60;40.20;;;;;;492251;240;1164;-52
2022/09/17 04:15:50;;;;;;;;;;;21.60;40.20;;;;;;491751;240;1251;-51
2022/09/17 04:17:51;;;;;;;;;;;21.60;40.30;;;;;;492228;240;2357;-51
2022/09/17 04:19:54;;;;;;;;;;;21.60;40.20;;;;;;492241;240;1258;-50
2022/09/17 04:21:54;;;;;;;;;;;21.70;40.20;;;;;;492241;240;2414;-50
2022/09/17 04:23:55;;;;;;;;;;;21.70;40.20;;;;;;492245;240;1236;-51
2022/09/17 04:25:57;;;;;;;;;;;21.60;40.10;;;;;;492221;240;2137;-51
2022/09/17 04:27:58;;;;;;;;;;;21.70;40.10;;;;;;491784;240;1278;-50
2022/09/17 04:30:00;;;;;;;;;;;21.70;40.20;;;;;;492255;240;1217;-51
2022/09/17 04:32:01;;;;;;;;;;;21.60;40.10;;;;;;491827;240;1801;-51
2022/09/17 04:34:02;;;;;;;;;;;21.60;40.20;;;;;;492244;240;1209;-50
2022/09/17 04:36:03;;;;;;;;;;;21.60;40.40;;;;;;492188;240;1276;-50
2022/09/17 04:38:05;;;;;;;;;;;21.60;40.40;;;;;;491782;240;1266;-51
2022/09/17 04:40:06;;;;;;;;;;;21.60;40.50;;;;;;492135;240;1291;-51
2022/09/17 04:42:08;;;;;;;;;;;21.60;40.40;;;;;;491915;240;1374;-50
2022/09/17 04:44:09;;;;;;;;;;;21.60;40.40;;;;;;491752;240;1961;-51
2022/09/17 04:46:10;;;;;;;;;;;21.60;40.40;;;;;;492011;240;2172;-51
2022/09/17 04:48:11;;;;;;;;;;;21.60;40.40;;;;;;492185;240;1203;-50
2022/09/17 04:50:12;;;;;;;;;;;21.60;40.30;;;;;;491718;240;1302;-50
2022/09/17 04:52:14;;;;;;;;;;;21.60;40.30;;;;;;491721;240;1412;-50
2022/09/17 04:54:15;;;;;;;;;;;21.60;40.30;;;;;;492070;240;1482;-51
2022/09/17 04:56:17;;;;;;;;;;;21.60;40.30;;;;;;492227;240;1336;-51
2022/09/17 04:58:18;;;;;;;;;;;21.60;40.30;;;;;;491755;240;1272;-51
2022/09/17 05:00:19;;;;;;;;;;;21.60;40.30;;;;;;492215;240;1310;-50
2022/09/17 05:02:21;;;;;;;;;;;21.60;40.30;;;;;;491816;240;1221;-51
2022/09/17 05:04:22;;;;;;;;;;;21.60;40.30;;;;;;492223;240;1338;-51
2022/09/17 05:06:23;;;;;;;;;;;21.60;40.20;;;;;;492237;240;2212;-51
2022/09/17 05:08:25;;;;;;;;;;;21.60;40.20;;;;;;491759;240;1231;-52
2022/09/17 05:10:26;;;;;;;;;;;21.60;40.20;;;;;;492212;240;1247;-51
2022/09/17 05:12:27;;;;;;;;;;;21.60;40.20;;;;;;492028;240;1327;-51
2022/09/17 05:14:29;;;;;;;;;;;21.60;40.20;;;;;;492261;240;1239;-50
2022/09/17 05:16:30;;;;;;;;;;;21.60;40.20;;;;;;492061;240;1420;-51
2022/09/17 05:18:31;;;;;;;;;;;21.60;40.10;;;;;;491783;240;1178;-51
2022/09/17 05:20:33;;;;;;;;;;;21.60;40.20;;;;;;492232;240;1207;-51
2022/09/17 05:22:34;;;;;;;;;;;21.60;40.20;;;;;;491919;240;1304;-51
2022/09/17 05:24:38;;;;;;;;;;;21.60;40.20;;;;;;491763;240;1219;-52
2022/09/17 05:26:37;;;;;;;;;;;21.60;40.20;;;;;;492212;240;2188;-50
2022/09/17 05:28:38;;;;;;;;;;;21.60;40.20;;;;;;492220;240;1280;-51
2022/09/17 05:30:40;;;;;;;;;;;21.60;40.30;;;;;;492215;240;1434;-51
2022/09/17 05:32:41;;;;;;;;;;;21.60;40.20;;;;;;491839;240;1181;-51
2022/09/17 05:34:42;;;;;;;;;;;21.60;40.20;;;;;;492223;240;1346;-51
2022/09/17 05:36:44;;;;;;;;;;;21.60;40.20;;;;;;492251;240;1183;-51
2022/09/17 05:38:45;;;;;;;;;;;21.70;40.20;;;;;;492258;240;1169;-51
2022/09/17 05:40:47;;;;;;;;;;;21.60;40.10;;;;;;492180;240;1195;-51
2022/09/17 05:42:48;;;;;;;;;;;21.60;40.10;;;;;;491764;240;2390;-51
2022/09/17 05:44:49;;;;;;;;;;;21.60;40.10;;;;;;491763;240;1180;-51
2022/09/17 05:46:50;;;;;;;;;;;21.60;40.00;;;;;;492066;240;2160;-51
2022/09/17 05:48:52;;;;;;;;;;;21.60;40.20;;;;;;492228;240;1379;-50
2022/09/17 05:50:54;;;;;;;;;;;21.60;40.10;;;;;;492208;240;1235;-51
2022/09/17 05:52:54;;;;;;;;;;;21.60;40.10;;;;;;492187;240;2228;-51
2022/09/17 05:54:56;;;;;;;;;;;21.60;40.00;;;;;;491702;240;1136;-51
2022/09/17 05:56:57;;;;;;;;;;;21.60;40.00;;;;;;491897;240;1250;-51
2022/09/17 05:58:58;;;;;;;;;;;21.60;40.00;;;;;;492208;240;1202;-51
2022/09/17 06:01:00;;;;;;;;;;;21.60;39.90;;;;;;492192;240;1230;-50
2022/09/17 06:03:01;;;;;;;;;;;21.60;40.00;;;;;;491830;240;1244;-51
2022/09/17 06:05:02;;;;;;;;;;;21.60;40.10;;;;;;492208;240;1287;-50
2022/09/17 06:07:04;;;;;;;;;;;21.60;40.00;;;;;;492215;240;2201;-51
2022/09/17 06:09:05;;;;;;;;;;;21.60;40.10;;;;;;492213;240;1199;-51
2022/09/17 06:11:06;;;;;;;;;;;21.60;40.20;;;;;;492214;240;1265;-50
2022/09/17 06:13:07;;;;;;;;;;;21.60;40.20;;;;;;492189;240;1351;-50
2022/09/17 06:15:13;;;;;;;;;;;21.60;40.20;;;;;;491756;240;1362;-50
2022/09/17 06:17:10;;;;;;;;;;;21.60;40.20;;;;;;492025;240;1953;-50
2022/09/17 06:19:11;;;;;;;;;;;21.60;40.10;;;;;;492219;240;1215;-51
2022/09/17 06:21:13;;;;;;;;;;;21.60;40.10;;;;;;492211;240;1353;-51
2022/09/17 06:23:14;;;;;;;;;;;21.60;40.10;;;;;;492217;240;1303;-50
2022/09/17 06:25:15;;;;;;;;;;;21.60;40.20;;;;;;492163;240;1334;-50
2022/09/17 06:27:17;;;;;;;;;;;21.60;40.20;;;;;;492213;240;2188;-51
2022/09/17 06:29:18;;;;;;;;;;;21.60;40.10;;;;;;491859;240;1336;-51
2022/09/17 06:31:19;;;;;;;;;;;21.60;40.10;;;;;;491764;240;1178;-51
2022/09/17 06:33:21;;;;;;;;;;;21.60;40.20;;;;;;491741;240;1387;-51
2022/09/17 06:35:22;;;;;;;;;;;21.50;40.10;;;;;;491947;240;1267;-51
2022/09/17 06:37:23;;;;;;;;;;;21.60;40.10;;;;;;491801;240;1373;-51
2022/09/17 06:39:25;;;;;;;;;;;21.60;40.10;;;;;;492149;240;1349;-51
2022/09/17 06:41:26;;;;;;;;;;;21.60;40.00;;;;;;492227;240;1137;-52
2022/09/17 06:43:28;;;;;;;;;;;21.60;40.10;;;;;;492222;240;1142;-50
2022/09/17 06:45:29;;;;;;;;;;;21.60;40.10;;;;;;491756;240;1185;-50
2022/09/17 06:47:30;;;;;;;;;;;21.60;40.00;;;;;;492114;240;2188;-51
2022/09/17 06:49:32;;;;;;;;;;;21.60;40.00;;;;;;492216;240;1260;-51
2022/09/17 06:51:33;;;;;;;;;;;21.60;40.00;;;;;;492242;240;1307;-52
2022/09/17 06:53:35;;;;;;;;;;;21.50;40.10;;;;;;492183;240;1306;-50
2022/09/17 06:55:36;;;;;;;;;;;21.50;40.30;;;;;;491838;240;1813;-51
2022/09/17 06:57:37;;;;;;;;;;;21.50;40.40;;;;;;492171;240;1298;-51
2022/09/17 06:59:38;;;;;;;;;;;21.50;40.50;;;;;;492223;240;1293;-50
2022/09/17 07:01:39;;;;;;;;;;;21.50;40.70;;;;;;492216;240;1218;-51
2022/09/17 07:03:41;;;;;;;;;;;21.50;40.70;;;;;;491903;240;1268;-51
2022/09/17 07:05:43;;;;;;;;;;;21.50;40.70;;;;;;491781;240;1242;-50
2022/09/17 07:07:44;;;;;;;;;;;21.50;40.80;;;;;;492231;240;1220;-50
2022/09/17 07:09:45;;;;;;;;;;;21.50;40.80;;;;;;491790;240;1370;-51
2022/09/17 07:11:47;;;;;;;;;;;21.50;40.90;;;;;;492229;240;1248;-50
2022/09/17 07:13:48;;;;;;;;;;;21.50;41.00;;;;;;492230;240;1203;-50
2022/09/17 07:15:49;;;;;;;;;;;21.50;41.10;;;;;;491760;240;1308;-51
2022/09/17 07:17:51;;;;;;;;;;;21.50;41.10;;;;;;492123;240;1305;-50
2022/09/17 07:19:52;;;;;;;;;;;21.50;41.20;;;;;;491743;240;1484;-50
2022/09/17 07:21:53;;;;;;;;;;;21.40;41.20;;;;;;492261;240;1281;-51
2022/09/17 07:23:55;;;;;;;;;;;21.40;41.30;;;;;;492251;240;1339;-51
2022/09/17 07:25:56;;;;;;;;;;;21.40;41.30;;;;;;492162;240;2164;-51
2022/09/17 07:27:58;;;;;;;;;;;21.50;41.30;;;;;;491995;240;1237;-50
2022/09/17 07:29:59;;;;;;;;;;;21.40;41.30;;;;;;492238;240;2112;-51
2022/09/17 07:32:00;;;;;;;;;;;21.40;41.40;;;;;;492201;240;1247;-51
2022/09/17 07:34:01;;;;;;;;;;;21.50;41.40;;;;;;491751;240;1181;-51
2022/09/17 07:36:03;;;;;;;;;;;21.40;41.40;;;;;;492209;240;1239;-52
2022/09/17 07:38:04;;;;;;;;;;;21.40;41.40;;;;;;492220;240;1221;-51
2022/09/17 07:40:07;;;;;;;;;;;21.40;41.50;;;;;;491828;240;1242;-51
2022/09/17 07:42:08;;;;;;;;;;;21.40;41.50;;;;;;492212;240;1332;-51
2022/09/17 07:44:09;;;;;;;;;;;21.40;41.70;;;;;;492208;240;1180;-51
2022/09/17 07:46:11;;;;;;;;;;;21.40;41.70;;;;;;492194;240;2161;-51
2022/09/17 07:48:12;;;;;;;;;;;21.40;41.70;;;;;;492106;240;1328;-51
2022/09/17 07:50:13;;;;;;;;;;;21.40;41.70;;;;;;492166;240;1357;-51
2022/09/17 07:52:15;;;;;;;;;;;21.40;41.70;;;;;;492176;240;1280;-51
2022/09/17 07:54:16;;;;;;;;;;;21.40;41.70;;;;;;492164;240;1328;-51
2022/09/17 07:56:17;;;;;;;;;;;21.40;41.80;;;;;;491708;240;1264;-51
2022/09/17 07:58:19;;;;;;;;;;;21.40;41.80;;;;;;492175;240;1290;-51
2022/09/17 08:00:20;;;;;;;;;;;21.40;41.80;;;;;;492193;240;1323;-51
2022/09/17 08:02:22;;;;;;;;;;;21.40;41.80;;;;;;491702;240;1366;-51
2022/09/17 08:04:23;;;;;;;;;;;21.40;41.90;;;;;;491867;240;2213;-51
2022/09/17 08:06:26;;;;;;;;;;;21.40;41.90;;;;;;492210;240;2145;-51
2022/09/17 08:08:26;;;;;;;;;;;21.40;41.90;;;;;;492154;240;2089;-51
2022/09/17 08:10:28;;;;;;;;;;;21.40;42.00;;;;;;492188;240;1165;-51
2022/09/17 08:12:29;;;;;;;;;;;21.40;42.00;;;;;;492021;240;1312;-51
2022/09/17 08:14:30;;;;;;;;;;;21.40;42.10;;;;;;492192;240;1212;-50
2022/09/17 08:16:31;;;;;;;;;;;21.30;42.00;;;;;;491503;240;1203;-51
2022/09/17 08:18:33;;;;;;;;;;;21.40;42.10;;;;;;492125;240;1244;-51
2022/09/17 08:20:34;;;;;;;;;;;21.40;42.10;;;;;;492170;240;1234;-50
2022/09/17 08:22:36;;;;;;;;;;;21.30;42.20;;;;;;491630;240;1339;-50
2022/09/17 08:24:37;;;;;;;;;;;21.30;42.20;;;;;;492192;240;1190;-51
2022/09/17 08:26:39;;;;;;;;;;;21.30;42.20;;;;;;491714;240;2180;-51
2022/09/17 08:28:40;;;;;;;;;;;21.30;42.20;;;;;;492217;240;1223;-51
2022/09/17 08:30:41;;;;;;;;;;;21.30;42.20;;;;;;491764;240;1197;-51
2022/09/17 08:32:42;;;;;;;;;;;21.30;42.30;;;;;;492229;240;1280;-51
2022/09/17 08:34:44;;;;;;;;;;;21.30;42.30;;;;;;491889;240;1259;-50
2022/09/17 08:36:45;;;;;;;;;;;21.40;42.40;;;;;;492257;240;1078;-51
2022/09/17 08:38:47;;;;;;;;;;;21.40;42.30;;;;;;492254;240;1021;-51
2022/09/17 08:40:48;;;;;;;;;;;21.40;42.40;;;;;;492220;240;999;-52
2022/09/17 08:42:50;;;;;;;;;;;21.30;42.30;;;;;;492243;240;1129;-50
2022/09/17 08:44:51;;;;;;;;;;;21.30;42.40;;;;;;492245;240;2050;-50
2022/09/17 08:46:52;;;;;;;;;;;21.30;42.40;;;;;;492246;240;2169;-50
2022/09/17 08:48:53;;;;;;;;;;;21.30;42.40;;;;;;492103;240;1995;-51
2022/09/17 08:50:54;;;;;;;;;;;21.30;42.40;;;;;;492229;240;1240;-50
2022/09/17 08:52:56;;;;;;;;;;;21.30;42.40;;;;;;492265;240;1288;-51
2022/09/17 08:54:57;;;;;;;;;;;21.30;42.50;;;;;;492235;240;1334;-50
2022/09/17 08:56:58;;;;;;;;;;;21.30;42.50;;;;;;491794;240;1317;-51
2022/09/17 08:59:00;;;;;;;;;;;21.40;42.50;;;;;;492239;240;1226;-51
2022/09/17 09:01:01;;;;;;;;;;;21.30;42.40;;;;;;492246;240;1299;-51
2022/09/17 09:03:02;;;;;;;;;;;21.30;42.50;;;;;;492260;240;1277;-51
2022/09/17 09:05:04;;;;;;;;;;;21.30;42.50;;;;;;491948;240;1274;-51
2022/09/17 09:07:05;;;;;;;;;;;21.30;42.50;;;;;;492231;240;2144;-51
2022/09/17 09:09:06;;;;;;;;;;;21.30;42.60;;;;;;491744;240;1224;-50
2022/09/17 09:11:08;;;;;;;;;;;21.30;42.60;;;;;;492257;240;1311;-51
2022/09/17 09:13:09;;;;;;;;;;;21.30;42.70;;;;;;492235;240;1162;-50
2022/09/17 09:15:10;;;;;;;;;;;21.30;42.70;;;;;;492262;240;1313;-51
2022/09/17 09:17:12;;;;;;;;;;;21.30;42.60;;;;;;492246;240;1291;-51
2022/09/17 09:19:13;;;;;;;;;;;21.30;42.60;;;;;;492198;240;1171;-51
2022/09/17 09:21:14;;;;;;;;;;;21.40;42.70;;;;;;491771;240;1238;-51
2022/09/17 09:23:15;;;;;;;;;;;21.30;42.70;;;;;;492260;240;1303;-50
2022/09/17 09:25:17;;;;;;;;;;;21.30;42.80;;;;;;491764;240;1303;-52
2022/09/17 09:27:19;;;;;;;;;;;21.30;42.70;;;;;;492237;240;2180;-51
2022/09/17 09:29:20;;;;;;;;;;;21.30;42.80;;;;;;492232;240;1288;-50
2022/09/17 09:31:21;;;;;;;;;;;21.30;42.80;;;;;;492068;240;1339;-51
2022/09/17 09:33:22;;;;;;;;;;;21.30;42.80;;;;;;492238;240;1236;-51
2022/09/17 09:35:24;;;;;;;;;;;21.30;42.90;;;;;;491950;240;1278;-51
2022/09/17 09:37:25;;;;;;;;;;;21.30;42.90;;;;;;492241;240;1263;-50
2022/09/17 09:39:26;;;;;;;;;;;21.30;42.80;;;;;;491812;240;1245;-51
2022/09/17 09:41:28;;;;;;;;;;;21.30;42.90;;;;;;491791;240;1176;-51
2022/09/17 09:43:29;;;;;;;;;;;21.30;42.90;;;;;;492227;240;1285;-51
2022/09/17 09:45:30;;;;;;;;;;;21.30;42.90;;;;;;491793;240;1342;-50
2022/09/17 09:47:32;;;;;;;;;;;21.30;42.90;;;;;;492247;240;2211;-50
2022/09/17 09:49:33;;;;;;;;;;;21.30;42.90;;;;;;492218;240;1120;-51
2022/09/17 09:51:34;;;;;;;;;;;21.30;43.00;;;;;;491801;240;1174;-51
2022/09/17 09:53:36;;;;;;;;;;;21.30;43.00;;;;;;492210;240;1375;-51
2022/09/17 09:55:37;;;;;;;;;;;21.30;43.00;;;;;;492216;240;1205;-51
2022/09/17 09:57:38;;;;;;;;;;;21.30;43.10;;;;;;491781;240;1186;-51
2022/09/17 09:59:40;;;;;;;;;;;21.30;43.10;;;;;;492230;240;1338;-51
2022/09/17 10:01:41;;;;;;;;;;;21.30;43.10;;;;;;492243;240;1184;-50
2022/09/17 10:03:44;;;;;;;;;;;21.30;43.10;;;;;;491786;240;1389;-51
2022/09/17 10:05:44;;;;;;;;;;;21.30;43.10;;;;;;491761;240;1949;-50
2022/09/17 10:07:45;;;;;;;;;;;21.30;43.10;;;;;;492245;240;2212;-50
2022/09/17 10:09:47;;;;;;;;;;;21.30;43.20;;;;;;492208;240;1254;-50
2022/09/17 10:11:48;;;;;;;;;;;21.30;43.10;;;;;;492238;240;1408;-50
2022/09/17 10:13:49;;;;;;;;;;;21.30;43.10;;;;;;492227;240;1166;-51
2022/09/17 10:15:51;;;;;;;;;;;21.30;43.00;;;;;;492232;240;1185;-51
2022/09/17 10:17:52;;;;;;;;;;;21.30;42.90;;;;;;491784;240;1290;-50
2022/09/17 10:19:53;;;;;;;;;;;21.30;42.80;;;;;;491768;240;1446;-51
2022/09/17 10:21:55;;;;;;;;;;;21.40;42.80;;;;;;492120;240;1458;-52
2022/09/17 10:23:56;;;;;;;;;;;21.40;42.70;;;;;;491949;240;1316;-50
2022/09/17 10:25:57;;;;;;;;;;;21.40;42.70;;;;;;492211;240;1269;-51
2022/09/17 10:27:59;;;;;;;;;;;21.40;42.70;;;;;;492230;240;2188;-51
2022/09/17 10:30:00;;;;;;;;;;;21.40;42.70;;;;;;491789;240;1299;-50
2022/09/17 10:32:05;;;;;;;;;;;21.40;42.60;;;;;;492243;240;1323;-50
2022/09/17 10:34:03;;;;;;;;;;;21.40;42.60;;;;;;492289;240;2368;-51
2022/09/17 10:36:05;;;;;;;;;;;21.40;42.40;;;;;;492005;240;1288;-51
2022/09/17 10:38:05;;;;;;;;;;;21.40;42.50;;;;;;491804;240;2194;-50
2022/09/17 10:40:07;;;;;;;;;;;21.40;42.50;;;;;;491790;240;1077;-51
2022/09/17 10:42:08;;;;;;;;;;;21.40;42.40;;;;;;491792;240;1166;-50
2022/09/17 10:44:09;;;;;;;;;;;21.40;42.30;;;;;;492260;240;1137;-51
2022/09/17 10:46:11;;;;;;;;;;;21.40;42.40;;;;;;492235;240;1221;-51
2022/09/17 10:48:12;;;;;;;;;;;21.40;42.30;;;;;;492237;240;2176;-50
2022/09/17 10:50:13;;;;;;;;;;;21.50;42.20;;;;;;492106;240;1152;-51
2022/09/17 10:52:14;;;;;;;;;;;21.50;42.20;;;;;;492256;240;1279;-51
2022/09/17 10:54:16;;;;;;;;;;;21.50;42.20;;;;;;492231;240;1199;-50
2022/09/17 10:56:17;;;;;;;;;;;21.50;42.20;;;;;;491776;240;1244;-51
2022/09/17 10:58:19;;;;;;;;;;;21.50;42.10;;;;;;492219;240;1326;-50
2022/09/17 11:00:20;;;;;;;;;;;21.50;42.10;;;;;;491773;240;1336;-51
2022/09/17 11:02:21;;;;;;;;;;;21.50;42.00;;;;;;492204;240;1333;-51
2022/09/17 11:04:22;;;;;;;;;;;21.50;42.00;;;;;;492202;240;1234;-50
2022/09/17 11:06:24;;;;;;;;;;;21.50;42.00;;;;;;491769;240;1436;-50
2022/09/17 11:08:25;;;;;;;;;;;21.40;41.90;;;;;;491742;240;2208;-50
2022/09/17 11:10:26;;;;;;;;;;;21.50;42.00;;;;;;492188;240;1211;-50
2022/09/17 11:12:28;;;;;;;;;;;21.50;42.00;;;;;;491572;240;1658;-51
2022/09/17 11:14:32;;;;;;;;;;;21.50;41.90;;;;;;492150;240;1317;-50
2022/09/17 11:16:31;;;;;;;;;;;21.50;41.80;;;;;;491880;240;2222;-51
2022/09/17 11:18:32;;;;;;;;;;;21.50;41.90;;;;;;492211;240;1318;-51
2022/09/17 11:20:33;;;;;;;;;;;21.40;41.90;;;;;;492196;240;1187;-51
2022/09/17 11:22:35;;;;;;;;;;;21.50;41.90;;;;;;491586;240;1200;-51
2022/09/17 11:24:36;;;;;;;;;;;21.40;41.70;;;;;;492234;240;1079;-50
2022/09/17 11:26:37;;;;;;;;;;;21.50;41.80;;;;;;491847;240;1179;-51
2022/09/17 11:28:39;;;;;;;;;;;21.50;41.70;;;;;;492229;240;2152;-52
2022/09/17 11:30:40;;;;;;;;;;;21.40;41.70;;;;;;491893;240;1259;-51
2022/09/17 11:32:41;;;;;;;;;;;21.50;41.80;;;;;;491975;240;1273;-50
2022/09/17 11:34:43;;;;;;;;;;;21.40;41.60;;;;;;492233;240;1187;-51
2022/09/17 11:36:44;;;;;;;;;;;21.50;41.70;;;;;;491974;240;2391;-51
2022/09/17 11:38:45;;;;;;;;;;;21.50;41.60;;;;;;491776;240;1206;-51
2022/09/17 11:40:47;;;;;;;;;;;21.50;41.60;;;;;;492194;240;1178;-50
2022/09/17 11:42:48;;;;;;;;;;;21.50;41.60;;;;;;492235;240;1284;-49
2022/09/17 11:44:49;;;;;;;;;;;21.40;41.50;;;;;;492218;240;1116;-51
2022/09/17 11:46:51;;;;;;;;;;;21.50;41.50;;;;;;492225;240;1248;-51
2022/09/17 11:48:52;;;;;;;;;;;21.50;41.50;;;;;;491756;240;2211;-51
2022/09/17 11:50:53;;;;;;;;;;;21.40;41.40;;;;;;492184;240;1181;-50
2022/09/17 11:52:56;;;;;;;;;;;21.50;41.40;;;;;;491767;240;1232;-52
2022/09/17 11:54:56;;;;;;;;;;;21.50;41.40;;;;;;492238;240;2493;-51
2022/09/17 11:56:57;;;;;;;;;;;21.40;41.40;;;;;;492228;240;1048;-51